sensor_id;sensor_type;location;lat;lon;timestamp;temperature;humidity
78516;SHT31;67815;51.990;5.688;2023-07-22T00:01:11;18.9;62.3
78516;SHT31;67815;51.990;5.688;2023-07-22T00:03:40;18.9;61.7
78516;SHT31;67815;51.990;5.688;2023-07-22T00:06:11;18.9;62.1
78516;SHT31;67815;51.990;5.688;2023-07-22T00:08:41;18.8;61.8
78516;SHT31;67815;51.990;5.688;2023-07-22T00:11:10;18.8;61.7
78516;SHT31;67815;51.990;5.688;2023-07-22T00:13:40;18.8;62.0
78516;SHT31;67815;51.990;5.688;2023-07-22T00:16:11;18.8;62.1
78516;SHT31;67815;51.990;5.688;2023-07-22T00:18:42;18.7;62.3
78516;SHT31;67815;51.990;5.688;2023-07-22T00:21:12;18.7;62.3
78516;SHT31;67815;51.990;5.688;2023-07-22T00:23:42;18.7;62.2
78516;SHT31;67815;51.990;5.688;2023-07-22T00:26:13;18.7;62.1
78516;SHT31;67815;51.990;5.688;2023-07-22T00:28:43;18.6;62.2
78516;SHT31;67815;51.990;5.688;2023-07-22T00:31:12;18.6;62.5
78516;SHT31;67815;51.990;5.688;2023-07-22T00:33:42;18.6;63.2
78516;SHT31;67815;51.990;5.688;2023-07-22T00:36:11;18.5;62.9
78516;SHT31;67815;51.990;5.688;2023-07-22T00:38:41;18.5;63.1
78516;SHT31;67815;51.990;5.688;2023-07-22T00:41:10;18.5;63.4
78516;SHT31;67815;51.990;5.688;2023-07-22T00:43:40;18.4;64.0
78516;SHT31;67815;51.990;5.688;2023-07-22T00:46:10;18.4;63.9
78516;SHT31;67815;51.990;5.688;2023-07-22T00:48:41;18.4;63.6
78516;SHT31;67815;51.990;5.688;2023-07-22T00:51:11;18.4;64.3
78516;SHT31;67815;51.990;5.688;2023-07-22T00:53:41;18.4;63.6
78516;SHT31;67815;51.990;5.688;2023-07-22T00:56:11;18.4;63.6
78516;SHT31;67815;51.990;5.688;2023-07-22T00:58:40;18.4;63.6
78516;SHT31;67815;51.990;5.688;2023-07-22T01:01:10;18.4;63.7
78516;SHT31;67815;51.990;5.688;2023-07-22T01:03:42;18.4;63.6
78516;SHT31;67815;51.990;5.688;2023-07-22T01:06:14;18.4;63.8
78516;SHT31;67815;51.990;5.688;2023-07-22T01:08:45;18.4;63.7
78516;SHT31;67815;51.990;5.688;2023-07-22T01:11:17;18.4;63.9
78516;SHT31;67815;51.990;5.688;2023-07-22T01:13:47;18.3;64.0
78516;SHT31;67815;51.990;5.688;2023-07-22T01:16:17;18.3;64.1
78516;SHT31;67815;51.990;5.688;2023-07-22T01:18:47;18.3;64.2
78516;SHT31;67815;51.990;5.688;2023-07-22T01:21:18;18.3;64.6
78516;SHT31;67815;51.990;5.688;2023-07-22T01:23:48;18.3;64.6
78516;SHT31;67815;51.990;5.688;2023-07-22T01:26:19;18.3;65.0
78516;SHT31;67815;51.990;5.688;2023-07-22T01:28:49;18.3;65.0
78516;SHT31;67815;51.990;5.688;2023-07-22T01:31:18;18.3;65.1
78516;SHT31;67815;51.990;5.688;2023-07-22T01:33:48;18.3;65.0
78516;SHT31;67815;51.990;5.688;2023-07-22T01:36:19;18.3;65.0
78516;SHT31;67815;51.990;5.688;2023-07-22T01:38:49;18.3;65.4
78516;SHT31;67815;51.990;5.688;2023-07-22T01:41:18;18.3;65.2
78516;SHT31;67815;51.990;5.688;2023-07-22T01:43:48;18.3;65.2
78516;SHT31;67815;51.990;5.688;2023-07-22T01:46:18;18.3;64.9
78516;SHT31;67815;51.990;5.688;2023-07-22T01:48:48;18.3;64.6
78516;SHT31;67815;51.990;5.688;2023-07-22T01:51:18;18.2;65.1
78516;SHT31;67815;51.990;5.688;2023-07-22T01:53:48;18.2;64.9
78516;SHT31;67815;51.990;5.688;2023-07-22T01:56:18;18.2;64.7
78516;SHT31;67815;51.990;5.688;2023-07-22T01:58:49;18.2;64.7
78516;SHT31;67815;51.990;5.688;2023-07-22T02:01:18;18.2;64.9
78516;SHT31;67815;51.990;5.688;2023-07-22T02:03:48;18.2;64.8
78516;SHT31;67815;51.990;5.688;2023-07-22T02:06:19;18.2;64.8
78516;SHT31;67815;51.990;5.688;2023-07-22T02:08:49;18.1;64.9
78516;SHT31;67815;51.990;5.688;2023-07-22T02:11:19;18.1;65.1
78516;SHT31;67815;51.990;5.688;2023-07-22T02:13:50;18.1;65.0
78516;SHT31;67815;51.990;5.688;2023-07-22T02:16:20;18.1;65.2
78516;SHT31;67815;51.990;5.688;2023-07-22T02:18:49;18.1;65.0
78516;SHT31;67815;51.990;5.688;2023-07-22T02:21:18;18.0;65.1
78516;SHT31;67815;51.990;5.688;2023-07-22T02:23:48;18.0;65.1
78516;SHT31;67815;51.990;5.688;2023-07-22T02:26:18;18.0;65.1
78516;SHT31;67815;51.990;5.688;2023-07-22T02:28:47;18.0;65.1
78516;SHT31;67815;51.990;5.688;2023-07-22T02:31:17;18.0;65.0
78516;SHT31;67815;51.990;5.688;2023-07-22T02:33:46;17.9;65.4
78516;SHT31;67815;51.990;5.688;2023-07-22T02:36:18;17.9;65.5
78516;SHT31;67815;51.990;5.688;2023-07-22T02:38:50;17.9;65.6
78516;SHT31;67815;51.990;5.688;2023-07-22T02:41:20;17.9;65.5
78516;SHT31;67815;51.990;5.688;2023-07-22T02:43:49;17.9;65.6
78516;SHT31;67815;51.990;5.688;2023-07-22T02:46:19;17.8;65.6
78516;SHT31;67815;51.990;5.688;2023-07-22T02:48:49;17.8;65.8
78516;SHT31;67815;51.990;5.688;2023-07-22T02:51:18;17.8;65.9
78516;SHT31;67815;51.990;5.688;2023-07-22T02:53:48;17.8;65.9
78516;SHT31;67815;51.990;5.688;2023-07-22T02:56:18;17.8;65.9
78516;SHT31;67815;51.990;5.688;2023-07-22T02:58:47;17.7;65.9
78516;SHT31;67815;51.990;5.688;2023-07-22T03:01:17;17.7;65.9
78516;SHT31;67815;51.990;5.688;2023-07-22T03:03:47;17.7;66.1
78516;SHT31;67815;51.990;5.688;2023-07-22T03:06:19;17.7;66.1
78516;SHT31;67815;51.990;5.688;2023-07-22T03:08:49;17.7;66.1
78516;SHT31;67815;51.990;5.688;2023-07-22T03:11:19;17.6;66.2
78516;SHT31;67815;51.990;5.688;2023-07-22T03:13:52;17.6;66.2
78516;SHT31;67815;51.990;5.688;2023-07-22T03:16:24;17.6;66.1
78516;SHT31;67815;51.990;5.688;2023-07-22T03:18:54;17.6;66.0
78516;SHT31;67815;51.990;5.688;2023-07-22T03:21:24;17.5;66.2
78516;SHT31;67815;51.990;5.688;2023-07-22T03:23:53;17.5;66.3
78516;SHT31;67815;51.990;5.688;2023-07-22T03:26:23;17.5;66.2
78516;SHT31;67815;51.990;5.688;2023-07-22T03:28:53;17.5;66.2
78516;SHT31;67815;51.990;5.688;2023-07-22T03:31:23;17.5;66.3
78516;SHT31;67815;51.990;5.688;2023-07-22T03:33:52;17.4;66.2
78516;SHT31;67815;51.990;5.688;2023-07-22T03:36:22;17.4;66.2
78516;SHT31;67815;51.990;5.688;2023-07-22T03:38:51;17.4;66.3
78516;SHT31;67815;51.990;5.688;2023-07-22T03:41:20;17.4;66.2
78516;SHT31;67815;51.990;5.688;2023-07-22T03:43:50;17.4;66.2
78516;SHT31;67815;51.990;5.688;2023-07-22T03:46:20;17.4;66.6
78516;SHT31;67815;51.990;5.688;2023-07-22T03:48:49;17.3;66.6
78516;SHT31;67815;51.990;5.688;2023-07-22T03:51:19;17.3;66.6
78516;SHT31;67815;51.990;5.688;2023-07-22T03:53:49;17.3;66.6
78516;SHT31;67815;51.990;5.688;2023-07-22T03:56:19;17.3;66.6
78516;SHT31;67815;51.990;5.688;2023-07-22T03:58:51;17.3;66.9
78516;SHT31;67815;51.990;5.688;2023-07-22T04:01:23;17.3;67.1
78516;SHT31;67815;51.990;5.688;2023-07-22T04:03:52;17.3;66.9
78516;SHT31;67815;51.990;5.688;2023-07-22T04:06:22;17.3;67.0
78516;SHT31;67815;51.990;5.688;2023-07-22T04:08:51;17.3;67.1
78516;SHT31;67815;51.990;5.688;2023-07-22T04:11:21;17.2;67.1
78516;SHT31;67815;51.990;5.688;2023-07-22T04:13:50;17.2;67.1
78516;SHT31;67815;51.990;5.688;2023-07-22T04:16:20;17.2;67.1
78516;SHT31;67815;51.990;5.688;2023-07-22T04:18:49;17.2;67.2
78516;SHT31;67815;51.990;5.688;2023-07-22T04:21:19;17.2;67.2
78516;SHT31;67815;51.990;5.688;2023-07-22T04:23:50;17.2;67.3
78516;SHT31;67815;51.990;5.688;2023-07-22T04:26:21;17.2;67.6
78516;SHT31;67815;51.990;5.688;2023-07-22T04:28:50;17.2;67.8
78516;SHT31;67815;51.990;5.688;2023-07-22T04:31:20;17.2;68.1
78516;SHT31;67815;51.990;5.688;2023-07-22T04:33:50;17.2;68.2
78516;SHT31;67815;51.990;5.688;2023-07-22T04:36:19;17.2;68.3
78516;SHT31;67815;51.990;5.688;2023-07-22T04:38:49;17.2;68.4
78516;SHT31;67815;51.990;5.688;2023-07-22T04:41:19;17.2;68.4
78516;SHT31;67815;51.990;5.688;2023-07-22T04:43:49;17.3;68.5
78516;SHT31;67815;51.990;5.688;2023-07-22T04:46:19;17.3;68.7
78516;SHT31;67815;51.990;5.688;2023-07-22T04:48:48;17.3;68.9
78516;SHT31;67815;51.990;5.688;2023-07-22T04:51:20;17.4;68.8
78516;SHT31;67815;51.990;5.688;2023-07-22T04:53:51;17.4;69.0
78516;SHT31;67815;51.990;5.688;2023-07-22T04:56:20;17.4;69.1
78516;SHT31;67815;51.990;5.688;2023-07-22T04:58:50;17.4;69.2
78516;SHT31;67815;51.990;5.688;2023-07-22T05:01:19;17.4;69.3
78516;SHT31;67815;51.990;5.688;2023-07-22T05:03:49;17.5;69.4
78516;SHT31;67815;51.990;5.688;2023-07-22T05:06:22;17.5;69.8
78516;SHT31;67815;51.990;5.688;2023-07-22T05:08:52;17.5;69.7
78516;SHT31;67815;51.990;5.688;2023-07-22T05:11:22;17.5;69.8
78516;SHT31;67815;51.990;5.688;2023-07-22T05:13:54;17.5;69.7
78516;SHT31;67815;51.990;5.688;2023-07-22T05:16:23;17.5;69.8
78516;SHT31;67815;51.990;5.688;2023-07-22T05:18:53;17.5;69.8
78516;SHT31;67815;51.990;5.688;2023-07-22T05:21:22;17.6;69.7
78516;SHT31;67815;51.990;5.688;2023-07-22T05:23:52;17.6;69.6
78516;SHT31;67815;51.990;5.688;2023-07-22T05:26:22;17.6;69.8
78516;SHT31;67815;51.990;5.688;2023-07-22T05:28:51;17.6;69.6
78516;SHT31;67815;51.990;5.688;2023-07-22T05:31:21;17.7;70.3
78516;SHT31;67815;51.990;5.688;2023-07-22T05:33:50;17.7;70.1
78516;SHT31;67815;51.990;5.688;2023-07-22T05:36:21;17.7;70.3
78516;SHT31;67815;51.990;5.688;2023-07-22T05:38:51;17.7;69.5
78516;SHT31;67815;51.990;5.688;2023-07-22T05:41:22;17.8;69.8
78516;SHT31;67815;51.990;5.688;2023-07-22T05:43:52;17.8;70.0
78516;SHT31;67815;51.990;5.688;2023-07-22T05:46:21;17.8;69.8
78516;SHT31;67815;51.990;5.688;2023-07-22T05:48:51;17.8;69.6
78516;SHT31;67815;51.990;5.688;2023-07-22T05:51:22;17.8;70.0
78516;SHT31;67815;51.990;5.688;2023-07-22T05:53:52;17.9;70.1
78516;SHT31;67815;51.990;5.688;2023-07-22T05:56:21;17.9;69.9
78516;SHT31;67815;51.990;5.688;2023-07-22T05:58:51;17.9;70.4
78516;SHT31;67815;51.990;5.688;2023-07-22T06:01:20;17.9;69.6
78516;SHT31;67815;51.990;5.688;2023-07-22T06:03:52;18.0;70.4
78516;SHT31;67815;51.990;5.688;2023-07-22T06:06:23;18.0;69.4
78516;SHT31;67815;51.990;5.688;2023-07-22T06:08:53;18.0;69.8
78516;SHT31;67815;51.990;5.688;2023-07-22T06:11:23;18.1;70.3
78516;SHT31;67815;51.990;5.688;2023-07-22T06:13:53;18.1;70.0
78516;SHT31;67815;51.990;5.688;2023-07-22T06:16:22;18.1;70.1
78516;SHT31;67815;51.990;5.688;2023-07-22T06:18:52;18.2;69.4
78516;SHT31;67815;51.990;5.688;2023-07-22T06:21:21;18.2;68.8
78516;SHT31;67815;51.990;5.688;2023-07-22T06:23:51;18.2;69.0
78516;SHT31;67815;51.990;5.688;2023-07-22T06:26:20;18.3;68.7
78516;SHT31;67815;51.990;5.688;2023-07-22T06:28:52;18.3;68.4
78516;SHT31;67815;51.990;5.688;2023-07-22T06:31:21;18.3;69.2
78516;SHT31;67815;51.990;5.688;2023-07-22T06:33:52;18.4;68.0
78516;SHT31;67815;51.990;5.688;2023-07-22T06:36:22;18.4;67.9
78516;SHT31;67815;51.990;5.688;2023-07-22T06:38:52;18.4;68.9
78516;SHT31;67815;51.990;5.688;2023-07-22T06:41:22;18.5;68.0
78516;SHT31;67815;51.990;5.688;2023-07-22T06:43:52;18.5;67.2
78516;SHT31;67815;51.990;5.688;2023-07-22T06:46:22;18.5;67.0
78516;SHT31;67815;51.990;5.688;2023-07-22T06:48:52;18.6;67.7
78516;SHT31;67815;51.990;5.688;2023-07-22T06:51:21;18.6;66.9
78516;SHT31;67815;51.990;5.688;2023-07-22T06:53:51;18.6;67.9
78516;SHT31;67815;51.990;5.688;2023-07-22T06:56:20;18.6;67.8
78516;SHT31;67815;51.990;5.688;2023-07-22T06:58:50;18.7;68.5
78516;SHT31;67815;51.990;5.688;2023-07-22T07:01:20;18.7;67.3
78516;SHT31;67815;51.990;5.688;2023-07-22T07:03:50;18.7;67.6
78516;SHT31;67815;51.990;5.688;2023-07-22T07:06:20;18.8;67.6
78516;SHT31;67815;51.990;5.688;2023-07-22T07:08:50;18.8;67.9
78516;SHT31;67815;51.990;5.688;2023-07-22T07:11:19;18.8;67.9
78516;SHT31;67815;51.990;5.688;2023-07-22T07:13:49;18.8;68.1
78516;SHT31;67815;51.990;5.688;2023-07-22T07:16:23;18.8;68.6
78516;SHT31;67815;51.990;5.688;2023-07-22T07:18:53;18.9;68.8
78516;SHT31;67815;51.990;5.688;2023-07-22T07:21:26;18.9;69.1
78516;SHT31;67815;51.990;5.688;2023-07-22T07:23:55;18.9;69.0
78516;SHT31;67815;51.990;5.688;2023-07-22T07:26:25;19.0;68.5
78516;SHT31;67815;51.990;5.688;2023-07-22T07:28:54;19.0;68.0
78516;SHT31;67815;51.990;5.688;2023-07-22T07:31:24;19.0;69.0
78516;SHT31;67815;51.990;5.688;2023-07-22T07:33:54;19.1;67.9
78516;SHT31;67815;51.990;5.688;2023-07-22T07:36:24;19.1;68.5
78516;SHT31;67815;51.990;5.688;2023-07-22T07:38:54;19.2;68.9
78516;SHT31;67815;51.990;5.688;2023-07-22T07:41:24;19.2;68.2
78516;SHT31;67815;51.990;5.688;2023-07-22T07:43:53;19.2;68.0
78516;SHT31;67815;51.990;5.688;2023-07-22T07:46:25;19.3;68.2
78516;SHT31;67815;51.990;5.688;2023-07-22T07:48:58;19.3;67.4
78516;SHT31;67815;51.990;5.688;2023-07-22T07:51:31;19.3;67.1
78516;SHT31;67815;51.990;5.688;2023-07-22T07:54:00;19.4;67.2
78516;SHT31;67815;51.990;5.688;2023-07-22T07:56:31;19.4;66.8
78516;SHT31;67815;51.990;5.688;2023-07-22T07:59:01;19.5;67.8
78516;SHT31;67815;51.990;5.688;2023-07-22T08:01:33;19.5;66.1
78516;SHT31;67815;51.990;5.688;2023-07-22T08:04:03;19.6;67.5
78516;SHT31;67815;51.990;5.688;2023-07-22T08:06:33;19.6;67.8
78516;SHT31;67815;51.990;5.688;2023-07-22T08:09:05;19.7;67.9
78516;SHT31;67815;51.990;5.688;2023-07-22T08:11:36;19.7;66.3
78516;SHT31;67815;51.990;5.688;2023-07-22T08:14:06;19.8;66.0
78516;SHT31;67815;51.990;5.688;2023-07-22T08:16:36;19.8;66.7
78516;SHT31;67815;51.990;5.688;2023-07-22T08:19:08;19.9;65.4
78516;SHT31;67815;51.990;5.688;2023-07-22T08:21:37;19.9;65.3
78516;SHT31;67815;51.990;5.688;2023-07-22T08:24:08;20.0;65.5
78516;SHT31;67815;51.990;5.688;2023-07-22T08:26:38;20.0;65.1
78516;SHT31;67815;51.990;5.688;2023-07-22T08:29:07;20.0;64.9
78516;SHT31;67815;51.990;5.688;2023-07-22T08:31:38;20.1;65.7
78516;SHT31;67815;51.990;5.688;2023-07-22T08:34:08;20.1;64.1
78516;SHT31;67815;51.990;5.688;2023-07-22T08:36:38;20.2;64.6
78516;SHT31;67815;51.990;5.688;2023-07-22T08:39:09;20.2;64.7
78516;SHT31;67815;51.990;5.688;2023-07-22T08:41:42;20.2;63.0
78516;SHT31;67815;51.990;5.688;2023-07-22T08:44:20;20.3;62.4
78516;SHT31;67815;51.990;5.688;2023-07-22T08:46:55;20.3;64.1
78516;SHT31;67815;51.990;5.688;2023-07-22T08:49:27;20.4;62.0
78516;SHT31;67815;51.990;5.688;2023-07-22T08:52:01;20.4;62.4
78516;SHT31;67815;51.990;5.688;2023-07-22T08:54:33;20.4;64.8
78516;SHT31;67815;51.990;5.688;2023-07-22T08:57:04;20.5;63.0
78516;SHT31;67815;51.990;5.688;2023-07-22T08:59:35;20.5;62.3
78516;SHT31;67815;51.990;5.688;2023-07-22T09:02:10;20.5;61.2
78516;SHT31;67815;51.990;5.688;2023-07-22T09:04:41;20.5;60.3
78516;SHT31;67815;51.990;5.688;2023-07-22T09:07:13;20.5;62.6
78516;SHT31;67815;51.990;5.688;2023-07-22T09:09:46;20.5;60.3
78516;SHT31;67815;51.990;5.688;2023-07-22T09:12:17;20.6;59.8
78516;SHT31;67815;51.990;5.688;2023-07-22T09:14:48;20.6;62.2
78516;SHT31;67815;51.990;5.688;2023-07-22T09:17:19;20.6;62.7
78516;SHT31;67815;51.990;5.688;2023-07-22T09:19:51;20.6;62.1
78516;SHT31;67815;51.990;5.688;2023-07-22T09:22:26;20.6;62.4
78516;SHT31;67815;51.990;5.688;2023-07-22T09:25:17;20.6;61.4
78516;SHT31;67815;51.990;5.688;2023-07-22T09:27:48;20.7;62.3
78516;SHT31;67815;51.990;5.688;2023-07-22T09:30:23;20.7;61.7
78516;SHT31;67815;51.990;5.688;2023-07-22T09:32:55;20.7;61.2
78516;SHT31;67815;51.990;5.688;2023-07-22T09:35:27;20.8;59.4
78516;SHT31;67815;51.990;5.688;2023-07-22T09:37:58;20.8;61.4
78516;SHT31;67815;51.990;5.688;2023-07-22T09:40:28;20.8;59.6
78516;SHT31;67815;51.990;5.688;2023-07-22T09:43:01;20.9;57.8
78516;SHT31;67815;51.990;5.688;2023-07-22T09:45:31;20.9;60.1
78516;SHT31;67815;51.990;5.688;2023-07-22T09:48:01;20.9;58.3
78516;SHT31;67815;51.990;5.688;2023-07-22T09:50:31;20.9;59.7
78516;SHT31;67815;51.990;5.688;2023-07-22T09:53:01;21.0;58.1
78516;SHT31;67815;51.990;5.688;2023-07-22T09:55:32;21.0;59.8
78516;SHT31;67815;51.990;5.688;2023-07-22T09:58:03;21.0;58.4
78516;SHT31;67815;51.990;5.688;2023-07-22T10:00:37;21.0;57.8
78516;SHT31;67815;51.990;5.688;2023-07-22T10:03:10;21.1;59.8
78516;SHT31;67815;51.990;5.688;2023-07-22T10:05:41;21.1;59.3
78516;SHT31;67815;51.990;5.688;2023-07-22T10:08:18;21.1;59.3
78516;SHT31;67815;51.990;5.688;2023-07-22T10:10:53;21.1;58.5
78516;SHT31;67815;51.990;5.688;2023-07-22T10:13:26;21.1;60.4
78516;SHT31;67815;51.990;5.688;2023-07-22T10:15:56;21.2;57.4
78516;SHT31;67815;51.990;5.688;2023-07-22T10:18:27;21.2;58.0
78516;SHT31;67815;51.990;5.688;2023-07-22T10:20:57;21.2;57.7
78516;SHT31;67815;51.990;5.688;2023-07-22T10:23:29;21.2;57.2
78516;SHT31;67815;51.990;5.688;2023-07-22T10:26:01;21.2;59.4
78516;SHT31;67815;51.990;5.688;2023-07-22T10:28:31;21.2;60.7
78516;SHT31;67815;51.990;5.688;2023-07-22T10:31:02;21.3;60.0
78516;SHT31;67815;51.990;5.688;2023-07-22T10:33:32;21.3;57.9
78516;SHT31;67815;51.990;5.688;2023-07-22T10:36:05;21.4;60.3
78516;SHT31;67815;51.990;5.688;2023-07-22T10:38:36;21.4;59.4
78516;SHT31;67815;51.990;5.688;2023-07-22T10:41:14;21.4;57.5
78516;SHT31;67815;51.990;5.688;2023-07-22T10:43:56;21.4;58.6
78516;SHT31;67815;51.990;5.688;2023-07-22T10:46:37;21.5;58.4
78516;SHT31;67815;51.990;5.688;2023-07-22T10:49:15;21.5;57.0
78516;SHT31;67815;51.990;5.688;2023-07-22T10:51:50;21.5;56.1
78516;SHT31;67815;51.990;5.688;2023-07-22T10:54:34;21.5;56.3
78516;SHT31;67815;51.990;5.688;2023-07-22T10:57:26;21.4;56.4
78516;SHT31;67815;51.990;5.688;2023-07-22T10:59:57;21.4;57.0
78516;SHT31;67815;51.990;5.688;2023-07-22T11:02:29;21.4;56.4
78516;SHT31;67815;51.990;5.688;2023-07-22T11:04:59;21.3;54.8
78516;SHT31;67815;51.990;5.688;2023-07-22T11:07:34;21.3;56.7
78516;SHT31;67815;51.990;5.688;2023-07-22T11:10:15;21.3;54.3
78516;SHT31;67815;51.990;5.688;2023-07-22T11:12:46;21.2;56.8
78516;SHT31;67815;51.990;5.688;2023-07-22T11:15:17;21.2;57.3
78516;SHT31;67815;51.990;5.688;2023-07-22T11:17:49;21.2;57.2
78516;SHT31;67815;51.990;5.688;2023-07-22T11:20:22;21.2;56.1
78516;SHT31;67815;51.990;5.688;2023-07-22T11:22:52;21.2;55.9
78516;SHT31;67815;51.990;5.688;2023-07-22T11:25:22;21.2;55.4
78516;SHT31;67815;51.990;5.688;2023-07-22T11:27:53;21.2;55.1
78516;SHT31;67815;51.990;5.688;2023-07-22T11:30:25;21.2;57.0
78516;SHT31;67815;51.990;5.688;2023-07-22T11:32:59;21.2;57.6
78516;SHT31;67815;51.990;5.688;2023-07-22T11:35:29;21.2;55.4
78516;SHT31;67815;51.990;5.688;2023-07-22T11:38:03;21.2;56.1
78516;SHT31;67815;51.990;5.688;2023-07-22T11:40:36;21.3;57.5
78516;SHT31;67815;51.990;5.688;2023-07-22T11:43:05;21.3;57.9
78516;SHT31;67815;51.990;5.688;2023-07-22T11:45:37;21.3;56.2
78516;SHT31;67815;51.990;5.688;2023-07-22T11:48:12;21.3;57.5
78516;SHT31;67815;51.990;5.688;2023-07-22T11:50:44;21.4;56.2
78516;SHT31;67815;51.990;5.688;2023-07-22T11:53:13;21.4;54.9
78516;SHT31;67815;51.990;5.688;2023-07-22T11:55:44;21.4;55.5
78516;SHT31;67815;51.990;5.688;2023-07-22T11:58:14;21.4;55.8
78516;SHT31;67815;51.990;5.688;2023-07-22T12:00:44;21.5;56.7
78516;SHT31;67815;51.990;5.688;2023-07-22T12:03:15;21.5;55.8
78516;SHT31;67815;51.990;5.688;2023-07-22T12:05:45;21.5;55.2
78516;SHT31;67815;51.990;5.688;2023-07-22T12:08:16;21.6;55.2
78516;SHT31;67815;51.990;5.688;2023-07-22T12:10:57;21.6;53.5
78516;SHT31;67815;51.990;5.688;2023-07-22T12:13:27;21.6;54.4
78516;SHT31;67815;51.990;5.688;2023-07-22T12:16:03;21.6;53.3
78516;SHT31;67815;51.990;5.688;2023-07-22T12:18:43;21.6;54.8
78516;SHT31;67815;51.990;5.688;2023-07-22T12:21:13;21.6;53.1
78516;SHT31;67815;51.990;5.688;2023-07-22T12:23:46;21.6;54.6
78516;SHT31;67815;51.990;5.688;2023-07-22T12:26:18;21.6;53.3
78516;SHT31;67815;51.990;5.688;2023-07-22T12:28:49;21.6;54.8
78516;SHT31;67815;51.990;5.688;2023-07-22T12:31:19;21.5;56.1
78516;SHT31;67815;51.990;5.688;2023-07-22T12:33:49;21.5;57.4
78516;SHT31;67815;51.990;5.688;2023-07-22T12:36:19;21.4;58.4
78516;SHT31;67815;51.990;5.688;2023-07-22T12:38:48;21.3;59.2
78516;SHT31;67815;51.990;5.688;2023-07-22T12:41:18;21.2;59.6
78516;SHT31;67815;51.990;5.688;2023-07-22T12:43:47;21.2;60.1
78516;SHT31;67815;51.990;5.688;2023-07-22T12:46:17;21.1;61.1
78516;SHT31;67815;51.990;5.688;2023-07-22T12:48:47;21.0;61.7
78516;SHT31;67815;51.990;5.688;2023-07-22T12:51:16;21.0;61.4
78516;SHT31;67815;51.990;5.688;2023-07-22T12:53:46;21.0;61.7
78516;SHT31;67815;51.990;5.688;2023-07-22T12:56:16;20.9;62.3
78516;SHT31;67815;51.990;5.688;2023-07-22T12:58:45;20.9;62.4
78516;SHT31;67815;51.990;5.688;2023-07-22T13:01:15;20.9;62.7
78516;SHT31;67815;51.990;5.688;2023-07-22T13:03:44;20.9;62.2
78516;SHT31;67815;51.990;5.688;2023-07-22T13:06:16;20.9;62.5
78516;SHT31;67815;51.990;5.688;2023-07-22T13:08:45;20.9;62.2
78516;SHT31;67815;51.990;5.688;2023-07-22T13:11:15;21.0;61.5
78516;SHT31;67815;51.990;5.688;2023-07-22T13:13:44;21.0;60.9
78516;SHT31;67815;51.990;5.688;2023-07-22T13:16:13;21.1;62.3
78516;SHT31;67815;51.990;5.688;2023-07-22T13:18:43;21.1;58.5
78516;SHT31;67815;51.990;5.688;2023-07-22T13:21:12;21.2;59.1
78516;SHT31;67815;51.990;5.688;2023-07-22T13:23:42;21.2;58.9
78516;SHT31;67815;51.990;5.688;2023-07-22T13:26:11;21.3;58.6
78516;SHT31;67815;51.990;5.688;2023-07-22T13:28:41;21.4;58.7
78516;SHT31;67815;51.990;5.688;2023-07-22T13:31:12;21.4;58.3
78516;SHT31;67815;51.990;5.688;2023-07-22T13:33:44;21.5;57.5
78516;SHT31;67815;51.990;5.688;2023-07-22T13:36:14;21.5;57.7
78516;SHT31;67815;51.990;5.688;2023-07-22T13:38:43;21.5;58.2
78516;SHT31;67815;51.990;5.688;2023-07-22T13:41:13;21.6;58.3
78516;SHT31;67815;51.990;5.688;2023-07-22T13:43:42;21.6;58.3
78516;SHT31;67815;51.990;5.688;2023-07-22T13:46:12;21.6;57.7
78516;SHT31;67815;51.990;5.688;2023-07-22T13:48:42;21.6;58.1
78516;SHT31;67815;51.990;5.688;2023-07-22T13:51:11;21.6;58.6
78516;SHT31;67815;51.990;5.688;2023-07-22T13:53:41;21.5;59.9
78516;SHT31;67815;51.990;5.688;2023-07-22T13:56:11;21.5;58.6
78516;SHT31;67815;51.990;5.688;2023-07-22T13:58:40;21.5;58.8
78516;SHT31;67815;51.990;5.688;2023-07-22T14:01:10;21.5;59.2
78516;SHT31;67815;51.990;5.688;2023-07-22T14:03:40;21.5;58.2
78516;SHT31;67815;51.990;5.688;2023-07-22T14:06:09;21.4;58.4
78516;SHT31;67815;51.990;5.688;2023-07-22T14:08:39;21.4;59.8
78516;SHT31;67815;51.990;5.688;2023-07-22T14:11:09;21.4;57.9
78516;SHT31;67815;51.990;5.688;2023-07-22T14:13:39;21.3;58.3
78516;SHT31;67815;51.990;5.688;2023-07-22T14:16:11;21.3;58.2
78516;SHT31;67815;51.990;5.688;2023-07-22T14:18:40;21.3;57.7
78516;SHT31;67815;51.990;5.688;2023-07-22T14:21:10;21.3;58.6
78516;SHT31;67815;51.990;5.688;2023-07-22T14:23:40;21.2;58.3
78516;SHT31;67815;51.990;5.688;2023-07-22T14:26:11;21.2;58.8
78516;SHT31;67815;51.990;5.688;2023-07-22T14:28:41;21.2;59.0
78516;SHT31;67815;51.990;5.688;2023-07-22T14:31:10;21.2;59.1
78516;SHT31;67815;51.990;5.688;2023-07-22T14:33:41;21.2;59.2
78516;SHT31;67815;51.990;5.688;2023-07-22T14:36:11;21.2;58.9
78516;SHT31;67815;51.990;5.688;2023-07-22T14:38:41;21.2;58.7
78516;SHT31;67815;51.990;5.688;2023-07-22T14:41:10;21.2;59.0
78516;SHT31;67815;51.990;5.688;2023-07-22T14:43:42;21.2;60.6
78516;SHT31;67815;51.990;5.688;2023-07-22T14:46:11;21.2;59.0
78516;SHT31;67815;51.990;5.688;2023-07-22T14:48:41;21.3;59.4
78516;SHT31;67815;51.990;5.688;2023-07-22T14:51:13;21.3;58.0
78516;SHT31;67815;51.990;5.688;2023-07-22T14:53:43;21.3;56.7
78516;SHT31;67815;51.990;5.688;2023-07-22T14:56:13;21.4;56.9
78516;SHT31;67815;51.990;5.688;2023-07-22T14:58:43;21.4;56.7
78516;SHT31;67815;51.990;5.688;2023-07-22T15:01:12;21.4;56.3
78516;SHT31;67815;51.990;5.688;2023-07-22T15:03:42;21.4;56.0
78516;SHT31;67815;51.990;5.688;2023-07-22T15:06:11;21.5;56.2
78516;SHT31;67815;51.990;5.688;2023-07-22T15:08:40;21.5;56.2
78516;SHT31;67815;51.990;5.688;2023-07-22T15:11:12;21.5;56.2
78516;SHT31;67815;51.990;5.688;2023-07-22T15:13:42;21.5;57.6
78516;SHT31;67815;51.990;5.688;2023-07-22T15:16:12;21.5;56.7
78516;SHT31;67815;51.990;5.688;2023-07-22T15:18:41;21.6;56.4
78516;SHT31;67815;51.990;5.688;2023-07-22T15:21:11;21.6;56.1
78516;SHT31;67815;51.990;5.688;2023-07-22T15:23:40;21.6;56.2
78516;SHT31;67815;51.990;5.688;2023-07-22T15:26:10;21.6;56.6
78516;SHT31;67815;51.990;5.688;2023-07-22T15:28:40;21.6;55.9
78516;SHT31;67815;51.990;5.688;2023-07-22T15:31:10;21.6;57.9
78516;SHT31;67815;51.990;5.688;2023-07-22T15:33:39;21.6;55.8
78516;SHT31;67815;51.990;5.688;2023-07-22T15:36:09;21.6;56.0
78516;SHT31;67815;51.990;5.688;2023-07-22T15:38:41;21.6;56.0
78516;SHT31;67815;51.990;5.688;2023-07-22T15:41:10;21.6;56.5
78516;SHT31;67815;51.990;5.688;2023-07-22T15:43:40;21.6;57.3
78516;SHT31;67815;51.990;5.688;2023-07-22T15:46:12;21.6;56.5
78516;SHT31;67815;51.990;5.688;2023-07-22T15:48:43;21.5;58.1
78516;SHT31;67815;51.990;5.688;2023-07-22T15:51:12;21.6;56.6
78516;SHT31;67815;51.990;5.688;2023-07-22T15:53:42;21.6;56.2
78516;SHT31;67815;51.990;5.688;2023-07-22T15:56:11;21.5;56.2
78516;SHT31;67815;51.990;5.688;2023-07-22T15:58:41;21.5;56.3
78516;SHT31;67815;51.990;5.688;2023-07-22T16:01:10;21.5;56.8
78516;SHT31;67815;51.990;5.688;2023-07-22T16:03:40;21.5;58.0
78516;SHT31;67815;51.990;5.688;2023-07-22T16:06:09;21.5;57.2
78516;SHT31;67815;51.990;5.688;2023-07-22T16:08:39;21.5;58.6
78516;SHT31;67815;51.990;5.688;2023-07-22T16:11:09;21.5;57.3
78516;SHT31;67815;51.990;5.688;2023-07-22T16:13:38;21.5;57.1
78516;SHT31;67815;51.990;5.688;2023-07-22T16:16:08;21.6;58.2
78516;SHT31;67815;51.990;5.688;2023-07-22T16:18:39;21.6;57.4
78516;SHT31;67815;51.990;5.688;2023-07-22T16:21:09;21.6;56.9
78516;SHT31;67815;51.990;5.688;2023-07-22T16:23:38;21.6;56.5